Time;durP1;ratioP1;P1;durP2;ratioP2;P2;SDS_P1;SDS_P2;PMS_P1;PMS_P2;Temp;Humidity;BMP_temperature;BMP_pressure;BME280_temperature;BME280_humidity;BME280_pressure;Samples;Min_cycle;Max_cycle;Signal;HPM_P1;HPM_P2
2021/07/26 00:02:19;;;;;;;3.50;2.92;;;;;;;;;;3537310;39;105551;-62
2021/07/26 00:04:47;;;;;;;7.85;3.30;;;;;;;;;;3538751;39;105269;-62
2021/07/26 00:07:14;;;;;;;4.57;2.70;;;;;;;;;;3533633;39;106858;-62
2021/07/26 00:09:40;;;;;;;2.55;2.35;;;;;;;;;;3534313;39;107549;-62
2021/07/26 00:12:08;;;;;;;4.85;2.92;;;;;;;;;;3538017;39;105260;-61
2021/07/26 00:14:35;;;;;;;3.42;2.70;;;;;;;;;;3538352;39;105619;-62
2021/07/26 00:17:02;;;;;;;4.50;2.83;;;;;;;;;;3537908;39;106993;-63
2021/07/26 00:19:29;;;;;;;3.25;2.30;;;;;;;;;;3532787;39;108523;-63
2021/07/26 00:21:56;;;;;;;3.15;2.72;;;;;;;;;;3538382;39;105578;-64
2021/07/26 00:24:23;;;;;;;5.03;2.75;;;;;;;;;;3537995;39;105710;-64
2021/07/26 00:26:50;;;;;;;5.22;3.42;;;;;;;;;;3526631;39;107881;-62
2021/07/26 00:29:17;;;;;;;5.85;3.15;;;;;;;;;;3530977;39;108061;-63
2021/07/26 00:31:44;;;;;;;3.80;2.63;;;;;;;;;;3529664;39;105462;-63
2021/07/26 00:34:21;;;;;;;4.57;2.67;;;;;;;;;;3536644;39;105776;-63
2021/07/26 00:37:03;;;;;;;4.07;2.72;;;;;;;;;;3535000;39;106879;-63
2021/07/26 00:39:34;;;;;;;5.53;3.15;;;;;;;;;;3537240;39;107523;-62
2021/07/26 00:42:05;;;;;;;6.38;3.17;;;;;;;;;;3538103;39;105354;-63
2021/07/26 00:44:34;;;;;;;3.40;2.65;;;;;;;;;;3533884;39;107283;-63
2021/07/26 00:47:02;;;;;;;2.53;2.33;;;;;;;;;;3528647;39;107022;-62
2021/07/26 00:49:30;;;;;;;3.83;3.15;;;;;;;;;;3529032;39;107801;-63
2021/07/26 00:51:59;;;;;;;5.53;2.72;;;;;;;;;;3533519;39;105521;-62
2021/07/26 00:54:33;;;;;;;2.90;2.53;;;;;;;;;;3537472;39;105400;-62
2021/07/26 00:57:03;;;;;;;3.35;2.53;;;;;;;;;;3528873;39;107030;-63
2021/07/26 00:59:31;;;;;;;4.28;3.20;;;;;;;;;;3528353;39;107554;-63
2021/07/26 01:01:58;;;;;;;4.05;2.80;;;;;;;;;;3535531;39;105384;-63
2021/07/26 01:04:26;;;;;;;3.85;2.88;;;;;;;;;;3529912;39;105266;-62
2021/07/26 01:06:54;;;;;;;3.55;2.70;;;;;;;;;;3530629;39;106817;-62
2021/07/26 01:09:22;;;;;;;4.22;2.45;;;;;;;;;;3528160;39;108029;-62
2021/07/26 01:11:49;;;;;;;2.65;2.45;;;;;;;;;;3523287;39;105354;-62
2021/07/26 01:14:16;;;;;;;5.40;3.30;;;;;;;;;;3537401;39;105346;-62
2021/07/26 01:16:47;;;;;;;3.92;2.72;;;;;;;;;;3538359;39;106918;-62
2021/07/26 01:19:15;;;;;;;3.70;2.85;;;;;;;;;;3531317;39;107576;-62
2021/07/26 01:21:42;;;;;;;4.13;2.92;;;;;;;;;;3529526;39;105386;-62
2021/07/26 01:24:09;;;;;;;3.28;2.70;;;;;;;;;;3536281;39;106772;-62
2021/07/26 01:26:36;;;;;;;3.70;2.70;;;;;;;;;;3536581;39;107439;-62
2021/07/26 01:29:07;;;;;;;3.80;2.60;;;;;;;;;;3538763;39;108326;-62
2021/07/26 01:31:34;;;;;;;3.58;2.55;;;;;;;;;;3537721;39;105579;-62
2021/07/26 01:34:02;;;;;;;4.57;2.70;;;;;;;;;;3534619;39;105497;-62
2021/07/26 01:36:29;;;;;;;5.43;3.35;;;;;;;;;;3522221;39;106372;-61
2021/07/26 01:38:56;;;;;;;3.28;2.28;;;;;;;;;;3536554;39;108472;-62
2021/07/26 01:41:29;;;;;;;5.82;3.40;;;;;;;;;;3530365;39;105302;-62
2021/07/26 01:46:51;;;;;;;4.20;3.03;;;;;;;;;;3540043;39;106856;-62
2021/07/26 01:49:43;;;;;;;5.18;3.10;;;;;;;;;;3536308;39;107653;-62
2021/07/26 01:52:12;;;;;;;3.85;3.25;;;;;;;;;;3536905;39;105516;-63
2021/07/26 01:54:39;;;;;;;5.00;3.30;;;;;;;;;;3539054;39;105401;-63
2021/07/26 01:57:07;;;;;;;3.55;2.80;;;;;;;;;;3535650;39;106891;-63
2021/07/26 01:59:34;;;;;;;4.00;2.70;;;;;;;;;;3531091;39;108377;-63
2021/07/26 02:02:01;;;;;;;3.40;2.67;;;;;;;;;;3540071;39;105572;-62
2021/07/26 02:04:28;;;;;;;5.55;2.83;;;;;;;;;;3530949;39;105615;-62
2021/07/26 02:06:54;;;;;;;3.50;3.13;;;;;;;;;;3530491;39;106812;-62
2021/07/26 02:09:22;;;;;;;3.50;2.60;;;;;;;;;;3529825;39;108350;-62
2021/07/26 02:11:48;;;;;;;3.22;2.90;;;;;;;;;;3530188;39;107646;-62
2021/07/26 02:14:15;;;;;;;4.97;3.15;;;;;;;;;;3534723;39;105275;-62
2021/07/26 02:16:42;;;;;;;3.58;3.05;;;;;;;;;;3537693;39;106712;-62
2021/07/26 02:19:09;;;;;;;3.47;2.63;;;;;;;;;;3534816;39;107524;-63
2021/07/26 02:21:36;;;;;;;2.92;2.60;;;;;;;;;;3541813;39;105539;-62
2021/07/26 02:24:03;;;;;;;5.38;3.38;;;;;;;;;;3540700;39;105508;-62
2021/07/26 02:26:30;;;;;;;4.13;2.92;;;;;;;;;;3549817;39;106845;-62
2021/07/26 02:28:57;;;;;;;4.35;3.00;;;;;;;;;;3540700;39;107407;-62
2021/07/26 02:31:24;;;;;;;4.45;3.08;;;;;;;;;;3545028;39;105495;-62
2021/07/26 02:33:51;;;;;;;2.90;2.70;;;;;;;;;;3546822;39;105456;-62
2021/07/26 02:36:18;;;;;;;3.38;3.05;;;;;;;;;;3545926;39;106838;-62
2021/07/26 02:38:44;;;;;;;4.93;3.55;;;;;;;;;;3545261;39;107226;-62
2021/07/26 02:41:13;;;;;;;3.88;2.80;;;;;;;;;;3546905;39;105563;-63
2021/07/26 02:43:41;;;;;;;3.45;2.90;;;;;;;;;;3539691;39;105803;-63
2021/07/26 02:46:10;;;;;;;4.82;2.80;;;;;;;;;;3542949;39;106932;-62
2021/07/26 02:48:38;;;;;;;3.97;3.00;;;;;;;;;;3549841;39;107578;-62
2021/07/26 02:51:06;;;;;;;4.07;3.17;;;;;;;;;;3548989;39;105481;-62
2021/07/26 02:53:33;;;;;;;3.05;2.67;;;;;;;;;;3550077;39;105330;-62
2021/07/26 02:56:00;;;;;;;3.60;3.00;;;;;;;;;;3549093;39;106850;-63
2021/07/26 02:58:28;;;;;;;5.68;3.38;;;;;;;;;;3544486;39;107575;-62
2021/07/26 03:00:54;;;;;;;6.13;3.42;;;;;;;;;;3540003;39;105466;-63
2021/07/26 03:03:21;;;;;;;5.15;3.15;;;;;;;;;;3547873;39;105559;-62
2021/07/26 03:05:48;;;;;;;4.53;3.15;;;;;;;;;;3543640;39;106974;-62
2021/07/26 03:08:15;;;;;;;3.75;3.13;;;;;;;;;;3539681;39;107541;-61
2021/07/26 03:10:42;;;;;;;4.03;3.10;;;;;;;;;;3540482;39;105824;-62
2021/07/26 03:13:09;;;;;;;3.95;3.33;;;;;;;;;;3538887;39;105284;-62
2021/07/26 03:15:36;;;;;;;3.88;3.45;;;;;;;;;;3544186;39;107366;-61
2021/07/26 03:18:03;;;;;;;5.25;3.65;;;;;;;;;;3539940;39;107520;-61
2021/07/26 03:20:30;;;;;;;3.47;3.13;;;;;;;;;;3544868;39;105675;-63
2021/07/26 03:23:05;;;;;;;4.13;3.03;;;;;;;;;;3541164;39;105310;-63
2021/07/26 03:25:33;;;;;;;3.22;2.92;;;;;;;;;;3541792;39;106876;-63
2021/07/26 03:28:01;;;;;;;4.20;3.13;;;;;;;;;;3548989;39;107618;-63
2021/07/26 03:30:28;;;;;;;4.70;3.60;;;;;;;;;;3544379;39;105345;-63
2021/07/26 03:32:55;;;;;;;3.28;2.97;;;;;;;;;;3539732;39;105330;-62
2021/07/26 03:35:23;;;;;;;4.68;3.15;;;;;;;;;;3540142;39;106882;-62
2021/07/26 03:37:52;;;;;;;4.47;3.28;;;;;;;;;;3541852;39;107508;-62
2021/07/26 03:40:20;;;;;;;4.95;3.50;;;;;;;;;;3540894;39;105472;-62
2021/07/26 03:42:47;;;;;;;3.25;2.90;;;;;;;;;;3545799;39;106271;-62
2021/07/26 03:45:16;;;;;;;3.78;3.10;;;;;;;;;;3541972;39;106918;-62
2021/07/26 03:47:43;;;;;;;3.05;2.75;;;;;;;;;;3549589;39;107447;-62
2021/07/26 03:50:13;;;;;;;4.47;3.83;;;;;;;;;;3542056;39;105487;-62
2021/07/26 03:52:53;;;;;;;5.43;3.60;;;;;;;;;;3539697;39;105331;-62
2021/07/26 03:55:24;;;;;;;5.93;3.90;;;;;;;;;;3545757;39;106968;-62
2021/07/26 03:57:52;;;;;;;4.60;3.08;;;;;;;;;;3549553;39;107572;-62
2021/07/26 04:00:23;;;;;;;4.63;3.47;;;;;;;;;;3542693;39;105379;-62
2021/07/26 04:07:53;;;;;;;3.57;3.13;;;;;;;;;;3539493;39;107779;-63
2021/07/26 04:10:20;;;;;;;4.00;3.65;;;;;;;;;;3541288;39;105540;-62
2021/07/26 04:12:49;;;;;;;3.38;3.00;;;;;;;;;;3544076;39;105511;-62
2021/07/26 04:15:16;;;;;;;5.05;3.70;;;;;;;;;;3549447;39;106921;-62
2021/07/26 04:17:44;;;;;;;4.57;3.72;;;;;;;;;;3541936;39;107551;-63
2021/07/26 04:20:11;;;;;;;7.00;4.25;;;;;;;;;;3532341;39;105537;-62
2021/07/26 04:22:39;;;;;;;5.40;3.63;;;;;;;;;;3532061;39;106837;-62
2021/07/26 04:25:08;;;;;;;5.10;3.20;;;;;;;;;;3530021;39;106836;-63
2021/07/26 04:27:36;;;;;;;4.18;3.78;;;;;;;;;;3529554;39;107518;-62
2021/07/26 04:30:04;;;;;;;5.72;3.88;;;;;;;;;;3531104;39;105490;-63
2021/07/26 04:32:40;;;;;;;4.30;3.80;;;;;;;;;;3539041;39;105614;-63
2021/07/26 04:35:08;;;;;;;4.20;3.33;;;;;;;;;;3535715;39;106884;-63
2021/07/26 04:37:34;;;;;;;6.07;4.15;;;;;;;;;;3529273;39;108056;-63
2021/07/26 04:40:07;;;;;;;4.18;3.25;;;;;;;;;;3531050;39;105315;-62
2021/07/26 04:42:39;;;;;;;4.32;3.40;;;;;;;;;;3539537;39;105303;-62
2021/07/26 04:45:07;;;;;;;5.93;3.70;;;;;;;;;;3531304;39;105838;-63
2021/07/26 04:47:35;;;;;;;4.55;3.35;;;;;;;;;;3529546;39;108134;-62
2021/07/26 04:50:03;;;;;;;5.38;3.83;;;;;;;;;;3533264;39;105536;-62
2021/07/26 04:52:30;;;;;;;4.47;3.90;;;;;;;;;;3539386;39;105559;-62
2021/07/26 04:54:57;;;;;;;4.25;3.20;;;;;;;;;;3539110;39;106967;-62
2021/07/26 04:57:24;;;;;;;4.07;3.47;;;;;;;;;;3539252;39;107509;-62
2021/07/26 04:59:51;;;;;;;4.30;2.90;;;;;;;;;;3539527;39;105267;-63
2021/07/26 05:02:18;;;;;;;5.13;4.00;;;;;;;;;;3539202;39;105221;-63
2021/07/26 05:04:44;;;;;;;5.22;3.65;;;;;;;;;;3539121;39;107487;-62
2021/07/26 05:07:11;;;;;;;3.45;3.10;;;;;;;;;;3540314;39;107449;-63
2021/07/26 05:09:40;;;;;;;4.32;3.65;;;;;;;;;;3539181;39;105747;-63
2021/07/26 05:12:12;;;;;;;7.07;3.65;;;;;;;;;;3540482;39;105327;-63
2021/07/26 05:14:43;;;;;;;5.75;4.38;;;;;;;;;;3540241;39;106883;-62
2021/07/26 05:17:15;;;;;;;3.55;3.17;;;;;;;;;;3540304;39;107369;-63
2021/07/26 05:19:42;;;;;;;7.15;4.15;;;;;;;;;;3540013;39;105651;-63
2021/07/26 05:22:09;;;;;;;5.57;3.65;;;;;;;;;;3540613;39;105422;-62
2021/07/26 05:24:36;;;;;;;4.57;4.00;;;;;;;;;;3540011;39;106958;-63
2021/07/26 05:27:04;;;;;;;4.50;3.40;;;;;;;;;;3540290;39;107483;-62
2021/07/26 05:29:31;;;;;;;4.32;3.25;;;;;;;;;;3540601;39;105589;-62
2021/07/26 05:31:59;;;;;;;4.78;3.58;;;;;;;;;;3540561;39;105144;-62
2021/07/26 05:34:27;;;;;;;6.47;4.47;;;;;;;;;;3540469;39;107290;-62
2021/07/26 05:36:56;;;;;;;4.07;3.60;;;;;;;;;;3540195;39;107503;-63
2021/07/26 05:39:23;;;;;;;4.43;3.53;;;;;;;;;;3540417;39;105691;-62
2021/07/26 05:41:52;;;;;;;6.55;4.35;;;;;;;;;;3540393;39;105288;-62
2021/07/26 05:44:19;;;;;;;4.60;3.45;;;;;;;;;;3540318;39;106867;-61
2021/07/26 05:46:46;;;;;;;5.55;3.30;;;;;;;;;;3540314;39;107905;-62
2021/07/26 05:49:13;;;;;;;5.75;4.20;;;;;;;;;;3540470;39;105420;-61
2021/07/26 05:51:40;;;;;;;4.72;3.53;;;;;;;;;;3540092;39;105230;-62
2021/07/26 05:54:07;;;;;;;6.97;3.60;;;;;;;;;;3539768;39;106801;-62
2021/07/26 05:56:40;;;;;;;3.83;3.40;;;;;;;;;;3530929;39;107469;-62
2021/07/26 05:59:07;;;;;;;5.65;2.97;;;;;;;;;;3540081;39;105368;-62
2021/07/26 06:01:49;;;;;;;4.07;3.42;;;;;;;;;;3539952;39;105396;-62
2021/07/26 06:04:19;;;;;;;4.00;3.15;;;;;;;;;;3539727;39;106954;-62
2021/07/26 06:06:53;;;;;;;7.25;4.50;;;;;;;;;;3539859;39;107980;-62
2021/07/26 06:09:23;;;;;;;3.92;3.53;;;;;;;;;;3540257;39;105319;-62
2021/07/26 06:11:52;;;;;;;3.88;3.38;;;;;;;;;;3540321;39;105329;-63
2021/07/26 06:14:20;;;;;;;3.20;2.90;;;;;;;;;;3539861;39;106901;-62
2021/07/26 06:16:49;;;;;;;3.45;3.13;;;;;;;;;;3539501;39;108165;-62
2021/07/26 06:19:17;;;;;;;6.95;4.63;;;;;;;;;;3540191;39;105417;-62
2021/07/26 06:21:50;;;;;;;4.07;3.50;;;;;;;;;;3540078;39;105379;-62
2021/07/26 06:24:18;;;;;;;6.53;3.92;;;;;;;;;;3539909;39;106801;-62
2021/07/26 06:26:46;;;;;;;3.85;3.50;;;;;;;;;;3539905;39;107879;-61
2021/07/26 06:29:14;;;;;;;4.80;3.15;;;;;;;;;;3540191;39;105357;-62
2021/07/26 06:31:43;;;;;;;3.80;3.40;;;;;;;;;;3540025;39;105324;-62
2021/07/26 06:34:10;;;;;;;5.00;3.35;;;;;;;;;;3540007;39;106880;-61
2021/07/26 06:36:39;;;;;;;5.97;4.20;;;;;;;;;;3539900;39;108149;-62
2021/07/26 06:39:09;;;;;;;4.72;3.20;;;;;;;;;;3539875;39;105271;-62
2021/07/26 06:41:37;;;;;;;5.68;3.67;;;;;;;;;;3540079;39;105518;-62
2021/07/26 06:44:05;;;;;;;4.97;4.07;;;;;;;;;;3539781;39;108020;-63
2021/07/26 06:46:31;;;;;;;4.05;3.65;;;;;;;;;;3539757;39;107611;-62
2021/07/26 06:48:59;;;;;;;5.82;4.20;;;;;;;;;;3539886;39;105322;-63
2021/07/26 06:51:26;;;;;;;5.93;4.47;;;;;;;;;;3540019;39;105340;-62
2021/07/26 06:53:53;;;;;;;4.45;3.25;;;;;;;;;;3539788;39;107681;-62
2021/07/26 06:56:20;;;;;;;4.68;3.97;;;;;;;;;;3540266;39;107315;-63
2021/07/26 06:58:47;;;;;;;5.47;3.63;;;;;;;;;;3539939;39;105317;-62
2021/07/26 07:01:15;;;;;;;6.72;5.10;;;;;;;;;;3539873;39;105746;-62
2021/07/26 07:03:43;;;;;;;6.50;3.50;;;;;;;;;;3529955;39;107066;-62
2021/07/26 07:06:17;;;;;;;5.60;3.80;;;;;;;;;;3530043;39;108082;-62
2021/07/26 07:08:44;;;;;;;7.15;5.07;;;;;;;;;;3529989;39;105320;-62
2021/07/26 07:11:20;;;;;;;5.60;4.53;;;;;;;;;;3529700;39;105402;-62
2021/07/26 07:13:52;;;;;;;4.93;3.60;;;;;;;;;;3529879;39;106967;-62
2021/07/26 07:16:22;;;;;;;5.32;3.97;;;;;;;;;;3529720;39;107789;-62
2021/07/26 07:18:50;;;;;;;6.10;4.22;;;;;;;;;;3529693;39;105284;-62
2021/07/26 07:21:29;;;;;;;6.55;3.88;;;;;;;;;;3530000;39;105255;-62
2021/07/26 07:24:00;;;;;;;6.95;4.60;;;;;;;;;;3529843;39;106780;-61
2021/07/26 07:26:29;;;;;;;9.43;5.25;;;;;;;;;;3529648;39;107528;-63
2021/07/26 07:28:56;;;;;;;5.65;4.40;;;;;;;;;;3529643;39;105171;-61
2021/07/26 07:31:26;;;;;;;5.95;3.85;;;;;;;;;;3529745;39;105966;-62
2021/07/26 07:33:55;;;;;;;5.68;4.13;;;;;;;;;;3530109;39;106857;-62
2021/07/26 07:36:23;;;;;;;6.45;4.85;;;;;;;;;;3529731;39;107538;-62
2021/07/26 07:38:50;;;;;;;7.55;4.72;;;;;;;;;;3529769;39;105388;-61
2021/07/26 07:41:18;;;;;;;6.90;4.10;;;;;;;;;;3529857;39;105330;-62
2021/07/26 07:43:48;;;;;;;8.10;5.22;;;;;;;;;;3529526;39;106948;-62
2021/07/26 07:46:17;;;;;;;6.78;4.80;;;;;;;;;;3529799;39;107441;-63
2021/07/26 07:48:44;;;;;;;8.30;5.10;;;;;;;;;;3530027;39;105302;-63
2021/07/26 07:51:11;;;;;;;9.23;6.25;;;;;;;;;;3529793;39;105215;-63
2021/07/26 07:53:38;;;;;;;9.30;6.40;;;;;;;;;;3529923;39;107018;-62
2021/07/26 07:56:06;;;;;;;8.90;6.30;;;;;;;;;;3529495;39;107428;-63
2021/07/26 07:58:36;;;;;;;8.05;4.88;;;;;;;;;;3529672;39;105645;-62
2021/07/26 08:01:03;;;;;;;8.07;5.68;;;;;;;;;;3529750;39;105307;-62
2021/07/26 08:03:31;;;;;;;7.72;4.93;;;;;;;;;;3529493;39;106948;-62
2021/07/26 08:06:01;;;;;;;7.68;5.07;;;;;;;;;;3529704;39;107828;-62
2021/07/26 08:08:29;;;;;;;9.02;5.22;;;;;;;;;;3529905;39;105524;-63
2021/07/26 08:10:57;;;;;;;9.43;5.45;;;;;;;;;;3529687;39;105443;-62
2021/07/26 08:13:25;;;;;;;7.15;4.63;;;;;;;;;;3529100;39;107056;-64
2021/07/26 08:15:55;;;;;;;8.30;5.50;;;;;;;;;;3529503;39;107454;-63
2021/07/26 08:18:23;;;;;;;7.57;5.07;;;;;;;;;;3533763;39;106023;-65
2021/07/26 08:20:52;;;;;;;7.72;5.05;;;;;;;;;;3542275;39;105622;-64
2021/07/26 08:23:20;;;;;;;8.02;5.45;;;;;;;;;;3543243;39;108800;-63
2021/07/26 08:25:48;;;;;;;6.72;5.22;;;;;;;;;;3544160;39;108054;-64
2021/07/26 08:28:15;;;;;;;7.45;4.72;;;;;;;;;;3542950;39;105966;-64
2021/07/26 08:30:43;;;;;;;10.32;5.68;;;;;;;;;;3543614;39;105539;-63
2021/07/26 08:33:10;;;;;;;6.63;5.13;;;;;;;;;;3542853;39;106821;-62
2021/07/26 08:35:39;;;;;;;5.53;4.40;;;;;;;;;;3543628;39;107262;-64
2021/07/26 08:38:07;;;;;;;5.93;4.57;;;;;;;;;;3543782;39;105455;-65
2021/07/26 08:40:35;;;;;;;8.57;5.13;;;;;;;;;;3543277;39;105654;-64
2021/07/26 08:43:07;;;;;;;10.30;5.30;;;;;;;;;;3544124;39;107355;-64
2021/07/26 08:45:35;;;;;;;7.43;4.88;;;;;;;;;;3539394;39;107575;-63
2021/07/26 08:48:08;;;;;;;7.10;4.85;;;;;;;;;;3539256;39;105325;-62
2021/07/26 08:50:37;;;;;;;9.05;4.82;;;;;;;;;;3538865;39;105638;-63
2021/07/26 08:53:06;;;;;;;9.57;4.70;;;;;;;;;;3537441;39;106948;-62
2021/07/26 08:55:34;;;;;;;6.72;4.60;;;;;;;;;;3538381;39;107532;-63
2021/07/26 08:58:03;;;;;;;6.03;4.47;;;;;;;;;;3537851;39;105618;-63
2021/07/26 09:00:30;;;;;;;8.10;4.63;;;;;;;;;;3537402;39;105326;-62
2021/07/26 09:02:57;;;;;;;5.75;4.55;;;;;;;;;;3537312;39;107317;-62
2021/07/26 09:05:24;;;;;;;9.25;4.85;;;;;;;;;;3537681;39;107475;-62
2021/07/26 09:07:51;;;;;;;10.82;5.82;;;;;;;;;;3537882;39;105326;-62
2021/07/26 09:10:25;;;;;;;12.35;5.07;;;;;;;;;;3537820;39;105836;-62
2021/07/26 09:12:56;;;;;;;11.93;5.63;;;;;;;;;;3538443;39;106828;-63
2021/07/26 09:15:35;;;;;;;11.38;5.95;;;;;;;;;;3538401;39;107680;-62
2021/07/26 09:18:05;;;;;;;11.98;5.93;;;;;;;;;;3538888;39;105414;-62
2021/07/26 09:20:39;;;;;;;7.65;4.82;;;;;;;;;;3530122;39;105443;-61
2021/07/26 09:23:14;;;;;;;9.15;5.63;;;;;;;;;;3528564;39;107044;-62
2021/07/26 09:25:45;;;;;;;7.22;4.82;;;;;;;;;;3528555;39;107506;-62
2021/07/26 09:28:13;;;;;;;8.38;5.40;;;;;;;;;;3528724;39;105366;-62
2021/07/26 09:30:41;;;;;;;7.35;4.53;;;;;;;;;;3528492;39;105328;-62
2021/07/26 09:33:17;;;;;;;7.00;4.50;;;;;;;;;;3538294;39;106845;-62
2021/07/26 09:35:45;;;;;;;8.73;4.88;;;;;;;;;;3538435;39;107577;-62
2021/07/26 09:38:16;;;;;;;6.78;4.38;;;;;;;;;;3538676;39;105344;-62
2021/07/26 09:40:46;;;;;;;10.38;4.72;;;;;;;;;;3538543;39;105253;-63
2021/07/26 09:43:20;;;;;;;6.38;4.50;;;;;;;;;;3538168;39;106801;-63
2021/07/26 09:45:48;;;;;;;6.90;4.25;;;;;;;;;;3537533;39;107504;-64
2021/07/26 09:48:19;;;;;;;7.25;4.35;;;;;;;;;;3535555;39;105427;-62
2021/07/26 09:50:48;;;;;;;7.00;4.63;;;;;;;;;;3533367;39;105608;-63
2021/07/26 09:53:25;;;;;;;11.75;5.40;;;;;;;;;;3535047;39;107532;-63
2021/07/26 09:55:57;;;;;;;6.87;4.23;;;;;;;;;;3535213;39;107534;-62
2021/07/26 09:58:42;;;;;;;8.32;4.68;;;;;;;;;;3534911;39;105912;-60
2021/07/26 10:01:12;;;;;;;6.35;4.30;;;;;;;;;;3535358;39;105568;-63
2021/07/26 10:03:43;;;;;;;6.60;4.57;;;;;;;;;;3523455;39;106123;-62
2021/07/26 10:06:13;;;;;;;6.28;4.43;;;;;;;;;;3531635;39;106876;-62
2021/07/26 10:08:43;;;;;;;8.02;4.40;;;;;;;;;;3531093;39;106528;-62
2021/07/26 10:11:14;;;;;;;5.82;4.00;;;;;;;;;;3531377;39;105690;-65
2021/07/26 10:13:45;;;;;;;6.05;4.22;;;;;;;;;;3532509;39;107183;-68
2021/07/26 10:16:21;;;;;;;7.38;4.22;;;;;;;;;;3533233;39;107743;-62
2021/07/26 10:18:49;;;;;;;6.47;4.00;;;;;;;;;;3529643;39;105547;-65
2021/07/26 10:21:25;;;;;;;5.57;4.20;;;;;;;;;;3533898;39;105364;-64
2021/07/26 10:24:01;;;;;;;7.00;4.32;;;;;;;;;;3534787;39;106948;-63
2021/07/26 10:26:37;;;;;;;7.28;3.85;;;;;;;;;;3534566;39;107036;-68
2021/07/26 10:29:05;;;;;;;5.72;4.00;;;;;;;;;;3534622;39;105680;-63
2021/07/26 10:31:37;;;;;;;6.00;3.85;;;;;;;;;;3533808;39;105553;-64
2021/07/26 10:34:13;;;;;;;6.35;3.75;;;;;;;;;;3534334;39;106835;-64
2021/07/26 10:36:44;;;;;;;6.53;3.88;;;;;;;;;;3533398;39;107621;-62
2021/07/26 10:39:22;;;;;;;7.10;4.15;;;;;;;;;;3535069;39;105480;-63
2021/07/26 10:41:54;;;;;;;6.32;3.58;;;;;;;;;;3535462;39;105640;-65
2021/07/26 10:44:22;;;;;;;6.63;4.07;;;;;;;;;;3533264;39;105814;-68
2021/07/26 10:46:58;;;;;;;8.18;3.60;;;;;;;;;;3534178;39;107465;-65
2021/07/26 10:49:53;;;;;;;8.48;4.20;;;;;;;;;;3534344;39;106067;-66
2021/07/26 10:52:26;;;;;;;6.47;3.50;;;;;;;;;;3511148;39;105596;-64
2021/07/26 10:54:55;;;;;;;4.90;3.30;;;;;;;;;;3534657;39;107450;-65
2021/07/26 10:57:49;;;;;;;5.32;3.70;;;;;;;;;;3532720;39;107532;-64
2021/07/26 11:00:20;;;;;;;6.82;3.80;;;;;;;;;;3534415;39;105341;-64
2021/07/26 11:02:48;;;;;;;;;;;;;;;;;;3533783;39;107154;-63
2021/07/26 11:05:27;;;;;;;6.00;3.40;;;;;;;;;;3531962;39;137023;-66
2021/07/26 11:08:13;;;;;;;5.78;3.08;;;;;;;;;;3533434;39;107504;-64
2021/07/26 11:10:49;;;;;;;5.80;3.40;;;;;;;;;;3533740;39;105394;-67
2021/07/26 11:13:17;;;;;;;4.40;2.88;;;;;;;;;;3533689;39;105284;-62
2021/07/26 11:15:48;;;;;;;6.80;3.45;;;;;;;;;;3533099;39;106819;-66
2021/07/26 11:18:18;;;;;;;6.53;3.65;;;;;;;;;;3533838;39;107524;-67
2021/07/26 11:21:08;;;;;;;5.40;3.03;;;;;;;;;;3533833;39;105939;-63
2021/07/26 11:23:49;;;;;;;5.88;3.67;;;;;;;;;;3534455;39;105915;-61
2021/07/26 11:26:19;;;;;;;4.97;3.38;;;;;;;;;;3534186;39;107081;-60
2021/07/26 11:28:52;;;;;;;6.28;4.00;;;;;;;;;;3533763;39;107439;-63
2021/07/26 11:31:21;;;;;;;7.22;4.20;;;;;;;;;;3533744;39;105391;-62
2021/07/26 11:33:50;;;;;;;6.78;3.83;;;;;;;;;;3534017;39;105412;-62
2021/07/26 11:36:18;;;;;;;5.13;3.50;;;;;;;;;;3533501;39;107276;-64
2021/07/26 11:39:05;;;;;;;5.82;3.90;;;;;;;;;;3533522;39;107483;-66
2021/07/26 11:41:34;;;;;;;4.93;3.78;;;;;;;;;;3534135;39;105625;-65
2021/07/26 11:44:05;;;;;;;9.93;3.80;;;;;;;;;;3533425;39;105368;-67
2021/07/26 11:46:34;;;;;;;5.00;3.78;;;;;;;;;;3534031;39;107017;-64
2021/07/26 11:49:01;;;;;;;5.70;3.70;;;;;;;;;;3534347;39;107661;-67
2021/07/26 11:51:31;;;;;;;7.70;4.22;;;;;;;;;;3533840;39;105465;-63
2021/07/26 11:54:06;;;;;;;7.05;3.90;;;;;;;;;;3524402;39;105540;-61
2021/07/26 11:56:34;;;;;;;4.93;3.50;;;;;;;;;;3533230;39;107011;-63
2021/07/26 11:59:21;;;;;;;4.82;3.45;;;;;;;;;;3534343;39;107580;-62
2021/07/26 12:02:14;;;;;;;5.85;3.60;;;;;;;;;;3533043;39;105548;-63
2021/07/26 12:04:42;;;;;;;5.43;3.70;;;;;;;;;;3532025;39;105921;-64
2021/07/26 12:07:09;;;;;;;5.38;3.35;;;;;;;;;;3531790;39;106356;-62
2021/07/26 12:09:48;;;;;;;4.18;3.38;;;;;;;;;;3530711;39;108244;-63
2021/07/26 12:12:17;;;;;;;6.28;3.47;;;;;;;;;;3533278;39;105793;-65
2021/07/26 12:14:44;;;;;;;5.85;3.17;;;;;;;;;;3531895;39;105432;-63
2021/07/26 12:17:21;;;;;;;4.15;3.20;;;;;;;;;;3533146;39;107496;-63
2021/07/26 12:30:13;;;;;;;5.15;3.30;;;;;;;;;;3533709;39;106917;-65
2021/07/26 12:32:50;;;;;;;5.35;3.55;;;;;;;;;;3532634;39;107664;-64
2021/07/26 12:35:18;;;;;;;4.63;3.60;;;;;;;;;;3534309;39;105794;-64
2021/07/26 12:38:05;;;;;;;5.70;3.60;;;;;;;;;;3533233;39;106144;-64
2021/07/26 12:40:35;;;;;;;4.38;3.35;;;;;;;;;;3532638;39;106891;-69
2021/07/26 12:43:12;;;;;;;6.43;3.47;;;;;;;;;;3523486;39;107498;-65
2021/07/26 12:45:44;;;;;;;6.20;3.60;;;;;;;;;;3533141;39;105571;-68
2021/07/26 12:48:13;;;;;;;5.13;3.30;;;;;;;;;;3532453;39;105394;-63
2021/07/26 12:50:41;;;;;;;6.55;3.75;;;;;;;;;;3532854;39;106910;-67
2021/07/26 12:53:10;;;;;;;7.00;3.80;;;;;;;;;;3533307;39;107404;-63
2021/07/26 12:55:42;;;;;;;6.80;4.03;;;;;;;;;;3532898;39;105548;-60
2021/07/26 12:58:11;;;;;;;8.10;3.50;;;;;;;;;;3531998;39;106156;-65
2021/07/26 13:00:39;;;;;;;6.45;4.10;;;;;;;;;;3532085;39;106986;-65
2021/07/26 13:03:12;;;;;;;3.92;3.15;;;;;;;;;;3530536;39;107451;-64
2021/07/26 13:05:40;;;;;;;6.05;3.53;;;;;;;;;;3531601;39;105782;-62
2021/07/26 13:08:11;;;;;;;8.20;3.92;;;;;;;;;;3533160;39;105356;-62
2021/07/26 13:10:41;;;;;;;4.30;3.15;;;;;;;;;;3533412;39;107148;-68
2021/07/26 13:13:10;;;;;;;5.80;3.63;;;;;;;;;;3524333;39;108291;-63
2021/07/26 13:15:39;;;;;;;5.35;2.97;;;;;;;;;;3531974;39;105597;-70
2021/07/26 13:18:11;;;;;;;5.22;2.90;;;;;;;;;;3533607;39;105363;-66
2021/07/26 13:20:44;;;;;;;4.20;2.88;;;;;;;;;;3541144;39;107466;-62
2021/07/26 13:23:11;;;;;;;4.43;2.85;;;;;;;;;;3542720;39;107495;-66
2021/07/26 13:25:43;;;;;;;3.67;2.95;;;;;;;;;;3543208;39;105557;-69
2021/07/26 13:28:14;;;;;;;6.20;3.00;;;;;;;;;;3542413;39;105582;-69
2021/07/26 13:30:43;;;;;;;4.53;3.03;;;;;;;;;;3543252;39;106564;-68
2021/07/26 13:33:14;;;;;;;4.85;3.00;;;;;;;;;;3543519;39;107747;-64
2021/07/26 13:35:43;;;;;;;4.95;2.88;;;;;;;;;;3543238;39;105540;-66
2021/07/26 13:38:10;;;;;;;5.57;3.22;;;;;;;;;;3541510;39;105559;-64
2021/07/26 13:40:37;;;;;;;5.30;3.25;;;;;;;;;;3544188;39;106384;-65
2021/07/26 13:43:04;;;;;;;4.88;3.28;;;;;;;;;;3543517;39;107540;-66
2021/07/26 13:45:35;;;;;;;4.22;2.83;;;;;;;;;;3543320;39;105550;-64
2021/07/26 13:48:05;;;;;;;5.30;3.15;;;;;;;;;;3541115;39;106202;-62
2021/07/26 13:50:35;;;;;;;;;;;;;;;;;;3543999;39;106015;-65
2021/07/26 13:53:03;;;;;;;4.85;3.42;;;;;;;;;;3541241;39;137643;-66
2021/07/26 13:55:30;;;;;;;7.25;3.95;;;;;;;;;;3545974;39;106457;-67
2021/07/26 13:57:57;;;;;;;7.15;3.53;;;;;;;;;;3540862;39;105543;-66
2021/07/26 14:00:24;;;;;;;4.45;2.90;;;;;;;;;;3541080;39;107407;-67
2021/07/26 14:02:51;;;;;;;4.57;3.33;;;;;;;;;;3543974;39;107524;-63
2021/07/26 14:05:21;;;;;;;4.33;3.03;;;;;;;;;;3540577;39;105835;-62
2021/07/26 14:07:50;;;;;;;4.50;3.07;;;;;;;;;;3542027;39;105616;-67
2021/07/26 14:10:17;;;;;;;4.28;3.17;;;;;;;;;;3541822;39;106842;-67
2021/07/26 14:12:44;;;;;;;5.60;3.13;;;;;;;;;;3542681;39;108049;-64
2021/07/26 14:15:12;;;;;;;7.35;3.72;;;;;;;;;;3542459;39;105686;-62
2021/07/26 14:17:40;;;;;;;4.05;3.20;;;;;;;;;;3543208;39;105563;-66
2021/07/26 14:20:08;;;;;;;6.72;3.85;;;;;;;;;;3541592;39;106859;-67
2021/07/26 14:22:36;;;;;;;3.65;3.08;;;;;;;;;;3521511;39;108075;-67
2021/07/26 14:25:08;;;;;;;5.45;3.15;;;;;;;;;;3530807;39;105521;-63
2021/07/26 14:27:35;;;;;;;;;;;;;;;;;;3534837;39;106443;-63
2021/07/26 14:30:04;;;;;;;5.57;3.40;;;;;;;;;;3533162;39;136342;-61
2021/07/26 14:32:31;;;;;;;4.85;3.38;;;;;;;;;;3535771;39;107550;-63
2021/07/26 14:34:59;;;;;;;4.65;3.25;;;;;;;;;;3537469;39;105506;-63
2021/07/26 14:37:26;;;;;;;5.53;3.67;;;;;;;;;;3538946;39;105308;-70
2021/07/26 14:40:46;;;;;;;5.60;3.30;;;;;;;;;;3537614;39;107482;-62
2021/07/26 14:43:15;;;;;;;5.80;3.55;;;;;;;;;;3532812;39;108078;-63
2021/07/26 14:45:42;;;;;;;5.32;3.50;;;;;;;;;;3535404;39;105737;-64
2021/07/26 14:48:09;;;;;;;5.55;3.45;;;;;;;;;;3529900;39;105995;-60
2021/07/26 14:50:37;;;;;;;7.72;4.00;;;;;;;;;;3537191;39;107065;-60
2021/07/26 14:53:03;;;;;;;7.78;4.07;;;;;;;;;;3539833;39;107488;-67
2021/07/26 14:55:30;;;;;;;11.27;4.72;;;;;;;;;;3534940;39;105691;-62
2021/07/26 14:57:57;;;;;;;4.07;3.40;;;;;;;;;;3524754;39;105553;-62
2021/07/26 15:00:24;;;;;;;6.22;3.85;;;;;;;;;;3534474;39;106857;-63
2021/07/26 15:02:51;;;;;;;9.07;4.13;;;;;;;;;;3535081;39;107506;-64
2021/07/26 15:05:18;;;;;;;5.97;3.75;;;;;;;;;;3531980;39;105540;-64